createdAt,value
2023-02-24T00:04:32.313Z,4.83
2023-02-24T00:09:31.590Z,4.58
2023-02-24T00:14:32.675Z,4.58
2023-02-24T00:19:32.891Z,4.46
2023-02-24T00:24:33.071Z,4.40
2023-02-24T00:29:35.192Z,4.21
2023-02-24T00:34:34.318Z,4.16
2023-02-24T00:39:35.481Z,4.08
2023-02-24T00:44:36.583Z,4.01
2023-02-24T00:49:38.705Z,4.19
2023-02-24T00:54:37.864Z,3.92
2023-02-24T00:59:40.025Z,4.00
2023-02-24T01:04:39.173Z,4.07
2023-02-24T01:09:41.341Z,4.22
2023-02-24T01:14:40.483Z,4.57
2023-02-24T01:19:41.595Z,4.34
2023-02-24T01:24:42.716Z,4.24
2023-02-24T01:29:45.062Z,4.24
2023-02-24T01:34:46.239Z,4.18
2023-02-24T01:39:47.361Z,4.15
2023-02-24T01:44:46.482Z,3.83
2023-02-24T01:49:48.640Z,3.76
2023-02-24T01:54:47.738Z,3.65
2023-02-24T01:59:48.849Z,3.31
2023-02-24T02:04:49.980Z,3.28
2023-02-24T02:09:51.136Z,3.44
2023-02-24T02:14:53.361Z,3.62
2023-02-24T02:19:52.472Z,3.44
2023-02-24T02:24:53.613Z,3.39
2023-02-24T02:29:54.775Z,3.46
2023-02-24T02:34:55.888Z,3.30
2023-02-24T02:39:57.004Z,3.16
2023-02-24T02:44:58.125Z,3.05
2023-02-24T02:49:59.269Z,2.73
2023-02-24T02:55:00.462Z,2.85
2023-02-24T03:00:02.576Z,2.95
2023-02-24T03:05:02.770Z,2.95
2023-02-24T03:10:02.969Z,3.03
2023-02-24T03:15:02.155Z,2.98
2023-02-24T03:20:03.341Z,2.88
2023-02-24T03:25:04.461Z,2.85
2023-02-24T03:30:05.592Z,2.70
2023-02-24T03:35:07.744Z,2.94
2023-02-24T03:40:06.929Z,2.98
2023-02-24T03:45:08.069Z,3.09
2023-02-24T03:50:09.172Z,3.10
2023-02-24T03:55:10.306Z,3.13
2023-02-24T04:00:11.492Z,3.18
2023-02-24T04:05:13.614Z,3.24
2023-02-24T04:10:13.748Z,3.21
2023-02-24T04:15:12.885Z,3.33
2023-02-24T04:20:15.197Z,3.28
2023-02-24T04:25:14.295Z,3.39
2023-02-24T04:30:15.436Z,3.31
2023-02-24T04:35:16.590Z,3.21
2023-02-24T04:40:18.746Z,3.13
2023-02-24T04:45:17.858Z,3.18
2023-02-24T04:50:20.140Z,3.31
2023-02-24T04:55:20.245Z,3.34
2023-02-24T05:00:19.405Z,3.40
2023-02-24T05:05:20.578Z,3.60
2023-02-24T05:10:21.723Z,3.67
2023-02-24T05:15:22.865Z,3.64
2023-02-24T05:20:25.017Z,3.64
2023-02-24T05:25:25.318Z,3.60
2023-02-24T05:30:25.524Z,3.62
2023-02-24T05:35:25.676Z,3.72
2023-02-24T05:40:24.793Z,3.78
2023-02-24T05:45:25.992Z,3.90
2023-02-24T05:50:27.103Z,3.94
2023-02-24T05:55:28.229Z,3.94
2023-02-24T06:00:30.391Z,4.07
2023-02-24T06:05:29.511Z,3.90
2023-02-24T06:10:30.616Z,3.88
2023-02-24T06:15:31.756Z,3.85
2023-02-24T06:20:34.864Z,3.75
2023-02-24T06:25:34.017Z,3.72
2023-02-24T06:30:35.294Z,3.67
2023-02-24T06:35:37.477Z,3.65
2023-02-24T06:40:36.605Z,3.79
2023-02-24T06:45:37.813Z,4.04
2023-02-24T06:50:40.589Z,4.32
2023-02-24T06:55:39.081Z,4.61
2023-02-24T07:00:41.235Z,4.72
2023-02-24T07:05:41.423Z,4.80
2023-02-24T07:10:40.540Z,5.02
2023-02-24T07:15:42.678Z,5.23
2023-02-24T07:20:41.784Z,5.41
2023-02-24T07:25:42.943Z,5.71
2023-02-24T07:30:44.149Z,5.96
2023-02-24T07:35:45.362Z,6.21
2023-02-24T07:40:46.527Z,6.38
2023-02-24T07:45:47.691Z,6.33
2023-02-24T07:50:48.904Z,6.53
2023-02-24T07:55:50.011Z,6.59
2023-02-24T08:01:36.221Z,6.68
2023-02-24T08:05:52.448Z,6.94
2023-02-24T08:10:51.581Z,7.26
2023-02-24T08:15:53.782Z,7.67
2023-02-24T08:20:53.044Z,7.41
2023-02-24T08:25:55.170Z,7.56
2023-02-24T08:30:56.441Z,7.81
2023-02-24T08:35:56.582Z,7.75
2023-02-24T08:40:56.788Z,7.45
2023-02-24T08:45:56.927Z,7.26
2023-02-24T08:50:57.060Z,7.20
2023-02-24T08:55:57.219Z,7.60
2023-02-24T09:00:57.423Z,7.77
2023-02-24T09:05:57.576Z,7.99
2023-02-24T09:10:57.748Z,8.47
2023-02-24T09:15:57.888Z,8.44
2023-02-24T09:20:57.025Z,8.84
2023-02-24T09:25:58.431Z,9.31
2023-02-24T09:30:59.623Z,10.01
2023-02-24T09:36:00.731Z,10.46
2023-02-24T09:41:13.754Z,9.97
2023-02-24T09:46:02.888Z,10.52
2023-02-24T09:51:04.764Z,10.47
2023-02-24T09:56:02.383Z,10.00
2023-02-24T10:01:03.546Z,10.03
2023-02-24T10:06:05.772Z,10.17
2023-02-24T10:11:05.898Z,10.36
2023-02-24T10:16:06.497Z,10.14
2023-02-24T10:21:07.283Z,10.37
2023-02-24T10:26:07.154Z,10.44
2023-02-24T10:31:07.619Z,10.51
2023-02-24T10:36:06.765Z,10.91
2023-02-24T10:41:07.915Z,11.32
2023-02-24T10:46:09.057Z,12.11
2023-02-24T10:51:11.168Z,12.01
2023-02-24T10:56:11.318Z,12.16
2023-02-24T11:01:11.481Z,12.42
2023-02-24T11:06:10.609Z,12.64
2023-02-24T11:11:11.715Z,13.22
2023-02-24T11:16:12.927Z,13.37
2023-02-24T11:21:14.045Z,13.59
2023-02-24T11:26:15.158Z,13.63
2023-02-24T11:31:16.441Z,13.61
2023-02-24T11:36:18.582Z,13.58
2023-02-24T11:41:18.816Z,13.21
2023-02-24T11:46:19.089Z,12.70
2023-02-24T11:51:18.310Z,12.52
2023-02-24T11:56:19.522Z,12.04
2023-02-24T12:01:21.761Z,11.59
2023-02-24T12:06:22.154Z,11.34
2023-02-24T12:11:21.961Z,11.49
2023-02-24T12:16:21.383Z,11.02
2023-02-24T12:21:22.895Z,10.99
2023-02-24T12:26:22.304Z,11.38
2023-02-24T12:31:25.117Z,11.72
2023-02-24T12:36:24.439Z,11.14
2023-02-24T12:41:26.576Z,10.99
2023-02-24T12:46:25.702Z,10.83
2023-02-24T12:51:26.833Z,10.96
2023-02-24T12:56:27.922Z,11.14
2023-02-24T13:01:29.129Z,10.98
2023-02-24T13:06:30.294Z,11.39
2023-02-24T13:11:31.492Z,11.25
2023-02-24T13:16:32.761Z,11.09
2023-02-24T13:21:33.968Z,11.10
2023-02-24T13:26:36.106Z,10.92
2023-02-24T13:31:35.299Z,10.96
2023-02-24T13:36:38.504Z,10.94
2023-02-24T13:41:38.682Z,11.01
2023-02-24T13:46:37.852Z,11.25
2023-02-24T13:51:39.097Z,10.99
2023-02-24T13:56:40.211Z,10.81
2023-02-24T14:01:41.406Z,10.88
2023-02-24T14:06:43.713Z,10.98
2023-02-24T14:11:42.870Z,11.35
2023-02-24T14:16:44.332Z,11.38
2023-02-24T14:21:47.483Z,11.43
2023-02-24T14:26:46.647Z,11.74
2023-02-24T14:31:47.971Z,12.01
2023-02-24T14:36:49.269Z,12.27
2023-02-24T14:41:50.590Z,12.21
2023-02-24T14:46:52.815Z,12.30
2023-02-24T14:51:51.914Z,12.21
2023-02-24T14:56:54.060Z,12.44
2023-02-24T15:01:53.323Z,12.49
2023-02-24T15:06:54.530Z,12.33
2023-02-24T15:11:55.649Z,12.19
2023-02-24T15:16:56.822Z,12.05
2023-02-24T15:21:58.041Z,12.19
2023-02-24T15:26:59.249Z,12.27
2023-02-24T15:32:01.503Z,12.13
2023-02-24T15:37:00.737Z,12.13
2023-02-24T15:42:01.909Z,12.20
2023-02-24T15:47:06.962Z,12.12
2023-02-24T15:52:03.137Z,12.19
2023-02-24T15:57:04.379Z,12.20
2023-02-24T16:02:07.508Z,12.06
2023-02-24T16:07:07.633Z,12.02
2023-02-24T16:12:07.880Z,12.06
2023-02-24T16:17:08.005Z,11.90
2023-02-24T16:22:08.151Z,11.89
2023-02-24T16:27:07.549Z,11.87
2023-02-24T16:32:07.128Z,11.85
2023-02-24T16:37:06.447Z,11.82
2023-02-24T16:42:07.808Z,11.72
2023-02-24T16:47:10.269Z,11.75
2023-02-24T16:52:09.729Z,11.65
2023-02-24T16:57:10.141Z,11.56
2023-02-24T17:02:09.558Z,11.56
2023-02-24T17:07:10.934Z,11.59
2023-02-24T17:12:12.476Z,11.65
2023-02-24T17:17:11.944Z,11.52
2023-02-24T17:22:11.451Z,11.29
2023-02-24T17:27:14.887Z,11.39
2023-02-24T17:32:12.528Z,11.35
2023-02-24T17:37:11.904Z,11.20
2023-02-24T17:42:13.101Z,11.21
2023-02-24T17:47:15.465Z,10.99
2023-02-24T17:52:14.700Z,11.02
2023-02-24T17:57:16.136Z,10.94
2023-02-24T18:02:15.526Z,10.88
2023-02-24T18:07:16.782Z,10.65
2023-02-24T18:12:18.954Z,10.42
2023-02-24T18:17:17.129Z,10.22
2023-02-24T18:22:18.344Z,9.73
2023-02-24T18:27:19.601Z,9.38
2023-02-24T18:32:21.240Z,9.42
2023-02-24T18:37:21.816Z,9.52
2023-02-24T18:42:21.285Z,9.27
2023-02-24T18:47:22.736Z,9.30
2023-02-24T18:52:21.999Z,9.30
2023-02-24T18:57:23.390Z,9.27
2023-02-24T19:02:25.805Z,9.39
2023-02-24T19:07:25.269Z,9.35
2023-02-24T19:12:26.747Z,9.42
2023-02-24T19:17:26.964Z,9.50
2023-02-24T19:22:26.341Z,9.50
2023-02-24T19:27:26.737Z,9.50
2023-02-24T19:32:28.236Z,9.60
2023-02-24T19:37:25.779Z,9.60
2023-02-24T19:42:26.939Z,9.61
2023-02-24T19:47:26.084Z,9.53
2023-02-24T19:52:27.444Z,9.32
2023-02-24T19:57:28.699Z,9.30
2023-02-24T20:02:31.080Z,9.21
2023-02-24T20:07:30.507Z,8.91
2023-02-24T20:12:32.026Z,8.87
2023-02-24T20:17:42.679Z,9.02
2023-02-24T20:22:32.019Z,9.05
2023-02-24T20:27:33.338Z,9.16
2023-02-24T20:32:48.030Z,9.24
2023-02-24T20:37:35.783Z,9.34
2023-02-24T20:42:35.213Z,9.38
2023-02-24T20:47:38.658Z,9.38
2023-02-24T20:52:37.867Z,9.45
2023-02-24T20:57:39.970Z,9.48
2023-02-24T21:02:40.376Z,9.35
2023-02-24T21:07:39.898Z,9.30
2023-02-24T21:12:39.181Z,9.34
2023-02-24T21:17:40.510Z,9.35
2023-02-24T21:23:02.659Z,9.15
2023-02-24T21:27:41.835Z,9.12
2023-02-24T21:32:43.125Z,9.13
2023-02-24T21:37:44.246Z,9.05
2023-02-24T21:42:45.351Z,9.12
2023-02-24T21:47:47.509Z,9.20
2023-02-24T21:52:48.601Z,9.20
2023-02-24T21:57:47.753Z,9.23
2023-02-24T22:02:48.952Z,9.21
2023-02-24T22:07:51.095Z,9.16
2023-02-24T22:12:50.233Z,9.13
2023-02-24T22:17:51.360Z,9.12
2023-02-24T22:22:53.454Z,8.99
2023-02-24T22:27:52.559Z,9.01
2023-02-24T22:32:53.705Z,9.15
2023-02-24T22:37:55.880Z,9.16
2023-02-24T22:42:54.987Z,9.28
2023-02-24T22:47:56.115Z,9.25
2023-02-24T22:52:58.281Z,8.86
2023-02-24T22:57:59.417Z,8.73
2023-02-24T23:02:58.580Z,8.69
2023-02-24T23:07:59.724Z,8.63
2023-02-24T23:12:59.874Z,8.76
2023-02-24T23:18:01.016Z,8.62
2023-02-24T23:23:02.302Z,8.63
2023-02-24T23:28:02.500Z,8.60
2023-02-24T23:33:03.684Z,8.58
2023-02-24T23:38:04.830Z,8.86
2023-02-24T23:43:06.009Z,8.65
2023-02-24T23:48:09.107Z,8.40
2023-02-24T23:53:09.195Z,8.55
2023-02-24T23:58:08.421Z,8.54
